Time;durP1;ratioP1;P1;durP2;ratioP2;P2;SDS_P1;SDS_P2;PMS_P1;PMS_P2;Temp;Humidity;BMP_temperature;BMP_pressure;BME280_temperature;BME280_humidity;BME280_pressure;Samples;Min_cycle;Max_cycle;Signal;HPM_P1;HPM_P2
2021/11/27 00:00:41;;;;;;;897.67;838.63;;;;;;;17.29;47.13;101670.59;5044636;28;20069;-31
2021/11/27 00:03:07;;;;;;;904.53;845.05;;;;;;;18.47;47.67;101840.00;5043107;28;20035;-34
2021/11/27 00:05:34;;;;;;;872.30;815.85;;;;;;;18.47;47.43;101840.00;5052268;28;20076;-32
2021/11/27 00:08:01;;;;;;;893.05;834.90;;;;;;;18.49;47.27;101835.41;5051255;28;20158;-35
2021/11/27 00:10:28;;;;;;;889.63;832.53;;;;;;;18.49;47.18;101841.56;5047443;28;20029;-35
2021/11/27 00:12:54;;;;;;;874.65;817.80;;;;;;;18.49;47.36;101849.53;5048841;28;20033;-31
2021/11/27 00:15:21;;;;;;;912.35;852.15;;;;;;;18.48;47.41;101837.22;5045650;28;20040;-32
2021/11/27 00:17:47;;;;;;;900.95;842.30;;;;;;;18.51;47.60;101847.63;5052465;28;20549;-33
2021/11/27 00:20:16;;;;;;;883.70;825.92;;;;;;;18.09;47.47;101791.38;5053074;28;20025;-32
2021/11/27 00:22:42;;;;;;;884.38;827.70;;;;;;;17.45;47.33;101688.91;5053315;28;20336;-33
2021/11/27 00:25:09;;;;;;;897.25;838.42;;;;;;;18.48;47.45;101836.38;5051869;28;20032;-32
2021/11/27 00:27:35;;;;;;;911.28;850.28;;;;;;;18.41;47.64;101847.47;5054909;28;20354;-32
2021/11/27 00:30:02;;;;;;;924.30;863.15;;;;;;;18.49;47.68;101852.19;5043841;28;20037;-35
2021/11/27 00:32:28;;;;;;;929.90;869.17;;;;;;;18.47;47.50;101853.28;5053412;28;20454;-33
2021/11/27 00:34:55;;;;;;;896.95;839.35;;;;;;;18.49;47.25;101848.69;5045763;28;20032;-33
2021/11/27 00:37:21;;;;;;;877.90;820.60;;;;;;;18.49;47.44;101856.69;5052353;28;20513;-33
2021/11/27 00:39:47;;;;;;;919.03;858.60;;;;;;;18.49;47.46;101854.00;5050236;28;20029;-33
2021/11/27 00:42:13;;;;;;;903.33;843.40;;;;;;;18.47;47.37;101854.13;5053788;28;20032;-34
2021/11/27 00:44:39;;;;;;;928.60;867.85;;;;;;;16.84;47.30;101582.78;5055647;28;20401;-33
2021/11/27 00:47:06;;;;;;;920.25;859.50;;;;;;;18.47;47.38;101846.16;5049951;28;20374;-33
2021/11/27 00:49:32;;;;;;;902.05;843.03;;;;;;;18.47;47.30;101846.16;5053518;28;20041;-35
2021/11/27 00:51:59;;;;;;;893.08;835.60;;;;;;;18.46;47.56;101840.94;5047656;28;20061;-34
2021/11/27 00:54:25;;;;;;;876.38;819.13;;;;;;;18.47;47.50;101850.63;5049727;28;20060;-33
2021/11/27 00:56:51;;;;;;;937.63;874.85;;;;;;;18.45;47.41;101853.41;5047858;28;20025;-33
2021/11/27 00:59:18;;;;;;;934.75;871.17;;;;;;;18.39;47.42;101853.88;5046986;28;20481;-35
2021/11/27 01:01:44;;;;;;;905.25;846.30;;;;;;;18.48;47.32;101862.97;5066828;28;20035;-33
2021/11/27 01:04:10;;;;;;;913.38;853.25;;;;;;;18.44;47.44;101859.69;5051263;28;20035;-40
2021/11/27 01:06:36;;;;;;;904.95;845.33;;;;;;;18.40;47.65;101864.41;5052339;28;20092;-33
2021/11/27 01:09:06;;;;;;;899.63;840.13;;;;;;;18.34;47.73;101840.91;5048773;28;20033;-34
2021/11/27 01:11:37;;;;;;;899.45;841.08;;;;;;;18.47;47.72;101866.59;5050991;28;20087;-34
2021/11/27 01:14:08;;;;;;;870.67;814.63;;;;;;;18.45;47.71;101860.53;5050481;28;20052;-35
2021/11/27 01:16:36;;;;;;;909.63;850.03;;;;;;;18.49;47.70;101876.13;5050154;28;20028;-34
2021/11/27 01:19:03;;;;;;;907.97;848.78;;;;;;;18.48;47.64;101868.28;5047700;28;20124;-36
2021/11/27 01:21:33;;;;;;;895.20;836.67;;;;;;;18.49;47.85;101869.97;5056558;28;20040;-36
2021/11/27 01:24:00;;;;;;;911.00;851.35;;;;;;;18.50;47.48;101875.19;5054517;28;20032;-35
2021/11/27 01:26:26;;;;;;;903.47;844.35;;;;;;;18.51;47.41;101873.38;5049387;28;20021;-33
2021/11/27 01:28:52;;;;;;;920.75;860.15;;;;;;;18.45;47.41;101863.19;5054399;28;20067;-37
2021/11/27 01:31:18;;;;;;;877.75;821.17;;;;;;;18.56;47.30;101879.19;5056816;28;20032;-37
2021/11/27 01:33:44;;;;;;;851.70;797.20;;;;;;;18.59;47.39;101876.31;5050542;28;20115;-39
2021/11/27 01:36:11;;;;;;;929.65;867.00;;;;;;;18.64;47.47;101883.94;5054633;28;20033;-38
2021/11/27 01:38:37;;;;;;;962.03;895.70;;;;;;;18.78;46.95;101875.75;5071642;28;20363;-36
2021/11/27 01:41:04;;;;;;;916.83;855.75;;;;;;;18.89;46.52;101883.78;5049575;28;20029;-33
2021/11/27 01:43:30;;;;;;;977.40;908.78;;;;;;;18.96;46.47;101895.66;5037872;28;20071;-34
2021/11/27 01:45:56;;;;;;;976.40;906.58;;;;;;;18.92;46.02;101856.09;5052102;28;20075;-36
2021/11/27 01:48:23;;;;;;;997.28;925.05;;;;;;;19.13;46.37;101880.19;5048839;28;20037;-42
2021/11/27 01:51:01;;;;;;;978.25;908.50;;;;;;;19.21;46.03;101877.78;5048242;28;20032;-41
2021/11/27 01:53:28;;;;;;;946.20;880.63;;;;;;;19.26;45.39;101875.63;5047930;28;20040;-42
2021/11/27 01:55:56;;;;;;;972.67;904.85;;;;;;;19.27;45.51;101877.28;5051219;28;20021;-42
2021/11/27 01:58:22;;;;;;;998.75;926.22;;;;;;;19.36;45.17;101883.72;5055610;28;20166;-42
2021/11/27 02:00:51;;;;;;;1001.35;928.15;;;;;;;19.33;45.34;101870.66;5053496;28;20033;-42
2021/11/27 02:03:17;;;;;;;1011.55;936.30;;;;;;;19.46;45.35;101886.53;5053856;28;20478;-42
2021/11/27 02:05:44;;;;;;;1009.65;934.35;;;;;;;19.50;45.29;101887.97;5062871;28;20078;-43
2021/11/27 02:08:10;;;;;;;1045.55;965.15;;;;;;;19.50;44.95;101879.97;5056670;28;20029;-44
2021/11/27 02:10:36;;;;;;;1016.38;940.22;;;;;;;19.49;45.29;101880.91;5055803;28;20041;-43
2021/11/27 02:13:02;;;;;;;1044.35;964.00;;;;;;;19.47;45.32;101877.53;5054116;28;20029;-42
2021/11/27 02:15:29;;;;;;;1026.90;949.85;;;;;;;19.49;45.39;101880.91;5057745;28;20047;-43
2021/11/27 02:17:55;;;;;;;1002.30;928.67;;;;;;;19.17;44.78;101828.41;5050753;28;20377;-44
2021/11/27 02:20:22;;;;;;;1018.45;940.63;;;;;;;19.40;44.73;101874.53;5052192;28;20040;-43
2021/11/27 02:22:48;;;;;;;1030.10;952.35;;;;;;;19.46;44.34;101870.53;5054699;28;20020;-44
2021/11/27 02:25:16;;;;;;;1042.65;962.63;;;;;;;19.51;44.45;101863.88;5059218;28;20025;-43
2021/11/27 02:27:47;;;;;;;980.75;910.33;;;;;;;19.48;44.80;101858.78;5050373;28;20088;-43
2021/11/27 02:30:15;;;;;;;967.70;897.03;;;;;;;19.46;44.69;101855.38;5054841;28;20033;-44
2021/11/27 02:32:41;;;;;;;994.05;922.20;;;;;;;19.50;44.58;101848.00;5054014;28;20447;-44
2021/11/27 02:35:07;;;;;;;987.60;916.15;;;;;;;19.53;44.48;101855.75;5053276;28;20036;-44
2021/11/27 02:37:33;;;;;;;1007.13;933.10;;;;;;;19.55;44.67;101859.13;5063004;28;20339;-44
2021/11/27 02:40:00;;;;;;;990.03;918.78;;;;;;;19.57;44.71;101851.88;5055828;28;20029;-45
2021/11/27 02:42:26;;;;;;;1015.20;938.95;;;;;;;19.56;44.56;101867.00;5064574;28;20350;-45
2021/11/27 02:44:52;;;;;;;979.97;909.47;;;;;;;19.57;44.34;101857.19;5060693;28;20021;-44
2021/11/27 02:47:18;;;;;;;995.08;922.97;;;;;;;19.47;44.19;101861.56;5062431;28;20044;-44
2021/11/27 02:49:44;;;;;;;992.83;922.03;;;;;;;19.37;44.06;101859.63;5056433;28;20210;-44
2021/11/27 02:52:11;;;;;;;979.45;909.55;;;;;;;19.32;44.11;101860.97;5064454;28;20906;-44
2021/11/27 02:54:37;;;;;;;975.65;906.28;;;;;;;19.33;44.12;101858.19;5060173;28;20093;-44
2021/11/27 02:57:03;;;;;;;989.75;919.25;;;;;;;19.34;44.10;101865.19;5059976;28;21248;-44
2021/11/27 02:59:30;;;;;;;987.65;918.03;;;;;;;19.31;44.17;101864.59;5054570;28;20052;-44
2021/11/27 03:01:59;;;;;;;976.13;908.05;;;;;;;19.30;44.38;101866.41;5050775;28;20029;-44
2021/11/27 03:04:26;;;;;;;976.97;907.80;;;;;;;19.22;44.48;101862.66;5046085;28;20028;-43
2021/11/27 03:06:52;;;;;;;944.15;876.85;;;;;;;19.28;44.51;101863.03;5050632;28;20174;-44
2021/11/27 03:09:19;;;;;;;985.83;917.13;;;;;;;19.25;44.12;101863.25;5048129;28;20021;-44
2021/11/27 03:11:49;;;;;;;956.35;891.00;;;;;;;19.17;44.18;101863.88;5051551;28;20032;-44
2021/11/27 03:14:15;;;;;;;940.03;875.50;;;;;;;19.18;44.25;101859.38;5048196;28;20051;-44
2021/11/27 03:16:42;;;;;;;972.85;903.50;;;;;;;19.13;44.24;101859.75;5052544;28;20020;-44
2021/11/27 03:19:10;;;;;;;922.28;859.92;;;;;;;19.15;43.97;101854.28;5045631;28;20039;-44
2021/11/27 03:21:36;;;;;;;982.00;911.22;;;;;;;19.17;44.54;101863.03;5043748;28;20138;-44
2021/11/27 03:24:03;;;;;;;947.92;882.65;;;;;;;19.17;44.49;101868.34;5049466;28;20031;-44
2021/11/27 03:26:29;;;;;;;941.28;876.90;;;;;;;19.18;44.50;101872.69;5053555;28;20047;-44
2021/11/27 03:28:55;;;;;;;919.83;859.08;;;;;;;19.16;44.32;101864.81;5049889;28;20025;-44
2021/11/27 03:31:21;;;;;;;935.10;872.47;;;;;;;19.12;44.54;101863.38;5051493;28;20086;-44
2021/11/27 03:33:48;;;;;;;950.58;882.75;;;;;;;19.14;44.42;101861.44;5042787;28;20029;-44
2021/11/27 03:36:15;;;;;;;941.67;876.45;;;;;;;19.08;44.69;101864.59;5056275;28;20486;-44
2021/11/27 03:38:41;;;;;;;943.65;880.97;;;;;;;19.10;44.19;101877.78;5048830;28;20104;-44
2021/11/27 03:41:07;;;;;;;921.83;860.50;;;;;;;19.02;44.08;101872.19;5047955;28;20464;-44
2021/11/27 03:43:33;;;;;;;936.47;873.78;;;;;;;19.06;43.54;101871.84;5048674;28;20028;-44
2021/11/27 03:46:00;;;;;;;946.53;883.17;;;;;;;19.01;43.80;101887.34;5052274;28;20021;-44
2021/11/27 03:48:29;;;;;;;952.85;888.88;;;;;;;18.89;44.28;101882.97;5050963;28;20025;-44
2021/11/27 03:50:55;;;;;;;928.03;865.10;;;;;;;18.97;44.34;101892.06;5051253;28;20032;-44
2021/11/27 03:53:27;;;;;;;927.70;864.00;;;;;;;19.00;44.00;101894.44;5043863;28;20025;-44
2021/11/27 03:55:54;;;;;;;921.83;860.50;;;;;;;19.00;44.13;101891.78;5048956;28;20257;-44
2021/11/27 03:58:20;;;;;;;943.47;879.78;;;;;;;19.01;44.20;101890.00;5051267;28;20097;-44
2021/11/27 04:00:46;;;;;;;916.72;856.15;;;;;;;18.98;44.15;101893.72;5050511;28;20123;-44
2021/11/27 04:03:13;;;;;;;965.97;895.13;;;;;;;18.97;44.36;101894.72;5050296;28;20044;-44
2021/11/27 04:05:45;;;;;;;923.75;860.70;;;;;;;18.93;44.13;101881.75;5051382;28;20024;-43
2021/11/27 04:08:11;;;;;;;904.35;844.55;;;;;;;19.01;43.83;101890.00;5047355;28;20035;-44
2021/11/27 04:10:38;;;;;;;904.80;845.60;;;;;;;18.97;43.65;101880.53;5057591;28;20032;-44
2021/11/27 04:13:04;;;;;;;922.38;860.72;;;;;;;18.97;43.53;101885.84;5044363;28;20028;-44
2021/11/27 04:15:30;;;;;;;935.97;872.88;;;;;;;18.84;43.87;101875.31;5052592;28;20410;-44
2021/11/27 04:17:57;;;;;;;906.17;846.33;;;;;;;18.82;44.11;101881.72;5055839;28;20332;-44
2021/11/27 04:20:23;;;;;;;969.05;899.55;;;;;;;18.87;44.16;101879.56;5054123;28;20048;-44
2021/11/27 04:22:49;;;;;;;936.83;872.08;;;;;;;18.92;44.21;101878.25;5049214;28;20463;-44
2021/11/27 04:25:15;;;;;;;911.42;851.65;;;;;;;18.88;43.98;101871.44;5055476;28;20040;-44
2021/11/27 04:27:42;;;;;;;937.78;871.63;;;;;;;18.86;44.28;101862.72;5055419;28;20024;-44
2021/11/27 04:30:10;;;;;;;923.90;860.10;;;;;;;18.85;43.95;101871.69;5054578;28;20043;-44
2021/11/27 04:32:37;;;;;;;907.00;847.75;;;;;;;18.72;44.10;101857.59;5056033;28;20397;-44
2021/11/27 04:35:04;;;;;;;924.97;863.47;;;;;;;18.86;43.98;101897.34;5049260;28;20074;-43
2021/11/27 04:37:30;;;;;;;931.40;869.20;;;;;;;18.82;43.92;101908.34;5045481;28;20040;-44
2021/11/27 04:39:56;;;;;;;934.22;872.03;;;;;;;18.81;44.42;101894.13;5056436;28;20100;-44
2021/11/27 04:42:22;;;;;;;928.60;864.95;;;;;;;18.83;43.90;101892.22;5062605;28;20043;-44
2021/11/27 04:44:49;;;;;;;915.03;855.08;;;;;;;18.87;44.00;101884.91;5058179;28;20082;-43
2021/11/27 04:47:15;;;;;;;910.13;850.03;;;;;;;18.77;44.24;101871.41;5074315;28;20095;-44
2021/11/27 04:49:41;;;;;;;920.72;860.45;;;;;;;18.78;44.31;101884.59;5065348;28;21284;-44
2021/11/27 04:52:08;;;;;;;882.45;825.03;;;;;;;18.73;44.56;101886.75;5060827;28;20495;-44
2021/11/27 04:54:35;;;;;;;896.78;837.83;;;;;;;18.66;44.42;101890.84;5060689;28;20362;-44
2021/11/27 04:57:01;;;;;;;894.45;835.85;;;;;;;18.52;44.46;101867.94;5062478;28;20040;-44
2021/11/27 04:59:27;;;;;;;924.83;861.05;;;;;;;18.56;44.31;101888.00;5063968;28;20024;-44
2021/11/27 05:01:54;;;;;;;921.33;858.92;;;;;;;18.63;44.36;101899.03;5065081;28;20036;-44
2021/11/27 05:04:20;;;;;;;924.10;860.42;;;;;;;18.62;44.40;101908.00;5060747;28;20124;-44
2021/11/27 05:06:46;;;;;;;893.85;836.65;;;;;;;18.50;44.10;101898.28;5059825;28;20028;-44
2021/11/27 05:09:12;;;;;;;913.72;853.47;;;;;;;18.55;43.86;101902.28;5059981;28;20502;-44
2021/11/27 05:11:39;;;;;;;902.65;844.28;;;;;;;18.53;43.72;101908.66;5061165;28;20451;-43
2021/11/27 05:14:05;;;;;;;899.72;841.17;;;;;;;18.47;43.88;101915.31;5060297;28;20032;-43
2021/11/27 05:16:32;;;;;;;906.20;845.22;;;;;;;18.47;44.25;101909.97;5064181;28;20029;-43
2021/11/27 05:18:58;;;;;;;915.35;855.50;;;;;;;18.49;44.20;101918.69;5063206;28;20033;-43
2021/11/27 05:21:24;;;;;;;915.70;856.75;;;;;;;18.41;44.34;101921.94;5057352;28;20088;-43
2021/11/27 05:23:51;;;;;;;896.45;837.90;;;;;;;18.44;44.33;101904.91;5060237;28;20174;-43
2021/11/27 05:26:17;;;;;;;909.15;850.38;;;;;;;18.30;44.30;101899.75;5075873;28;20028;-44
2021/11/27 05:28:43;;;;;;;896.50;838.42;;;;;;;18.36;44.41;101910.78;5059973;28;20033;-44
2021/11/27 05:31:13;;;;;;;896.25;838.03;;;;;;;18.31;44.29;101909.44;5057099;28;20028;-43
2021/11/27 05:36:13;;;;;;;906.08;847.33;;;;;;;18.31;44.13;101904.13;5062770;28;20037;-44
2021/11/27 05:38:40;;;;;;;899.22;841.35;;;;;;;18.32;44.17;101905.81;5065119;28;20420;-44
2021/11/27 05:41:09;;;;;;;871.03;815.17;;;;;;;18.32;43.94;101906.66;5060661;28;20651;-44
2021/11/27 05:43:35;;;;;;;888.92;831.70;;;;;;;18.23;44.04;101900.22;5063858;28;20024;-44
2021/11/27 05:46:01;;;;;;;896.33;839.05;;;;;;;18.21;44.21;101903.97;5059072;28;20033;-43
2021/11/27 05:48:27;;;;;;;881.88;824.13;;;;;;;18.23;44.31;101907.34;5063708;28;20032;-44
2021/11/27 05:50:54;;;;;;;891.78;831.80;;;;;;;18.20;44.19;101907.56;5062550;28;20454;-43
2021/11/27 05:53:20;;;;;;;885.00;827.95;;;;;;;18.19;44.12;101906.72;5061340;28;20040;-43
2021/11/27 05:55:47;;;;;;;876.42;819.63;;;;;;;18.14;44.02;101908.00;5064935;28;21106;-44
2021/11/27 05:58:14;;;;;;;877.05;821.53;;;;;;;18.17;44.26;101913.09;5058504;28;20043;-44
2021/11/27 06:00:40;;;;;;;868.83;812.35;;;;;;;18.14;44.18;101924.81;5054741;28;20055;-44
2021/11/27 06:03:07;;;;;;;887.22;830.67;;;;;;;18.15;44.16;101920.34;5047075;28;20446;-43
2021/11/27 06:05:33;;;;;;;888.85;831.97;;;;;;;18.11;44.25;101935.66;5057837;28;20051;-43
2021/11/27 06:07:59;;;;;;;877.95;822.00;;;;;;;18.11;43.99;101929.50;5057234;28;20035;-44
2021/11/27 06:10:26;;;;;;;876.67;820.92;;;;;;;18.07;43.73;101920.03;5064654;28;20039;-43
2021/11/27 06:12:53;;;;;;;890.22;833.20;;;;;;;18.05;43.94;101915.69;5056961;28;20040;-44
2021/11/27 06:15:19;;;;;;;876.35;820.75;;;;;;;18.05;43.94;101920.19;5060670;28;20024;-43
2021/11/27 06:17:45;;;;;;;889.58;833.20;;;;;;;18.05;44.28;101928.16;5059458;28;20482;-43
2021/11/27 06:20:11;;;;;;;889.80;833.25;;;;;;;18.03;44.30;101930.03;5059506;28;20174;-44
2021/11/27 06:22:38;;;;;;;910.92;851.65;;;;;;;18.02;44.28;101933.69;5060307;28;20024;-43
2021/11/27 06:25:04;;;;;;;888.15;831.25;;;;;;;18.01;44.22;101929.31;5062177;28;20037;-43
2021/11/27 06:27:31;;;;;;;866.60;811.17;;;;;;;17.96;44.21;101932.31;5054997;28;20032;-43
2021/11/27 06:29:57;;;;;;;890.17;833.50;;;;;;;17.98;44.29;101924.25;5059596;28;20036;-43
2021/11/27 06:32:23;;;;;;;887.30;829.63;;;;;;;17.97;44.17;101933.16;5060057;28;20025;-43
2021/11/27 06:34:51;;;;;;;876.53;818.75;;;;;;;17.93;44.22;101927.22;5060513;28;20028;-44
2021/11/27 06:37:20;;;;;;;879.80;823.88;;;;;;;17.94;44.28;101933.38;5059073;28;20449;-43
2021/11/27 06:39:47;;;;;;;890.65;834.40;;;;;;;17.81;44.13;101904.16;5060975;28;20482;-43
2021/11/27 06:42:13;;;;;;;882.08;825.55;;;;;;;17.98;44.00;101917.09;5060782;28;20085;-43
2021/11/27 06:44:46;;;;;;;889.72;833.88;;;;;;;17.93;44.20;101923.72;5051618;28;20366;-43
2021/11/27 06:47:16;;;;;;;883.97;827.80;;;;;;;17.90;44.38;101927.44;5051594;28;20348;-44
2021/11/27 06:49:42;;;;;;;881.58;825.90;;;;;;;17.90;44.45;101916.81;5084988;28;20093;-44
2021/11/27 06:52:09;;;;;;;895.03;838.10;;;;;;;17.88;44.42;101923.19;5065697;28;20370;-44
2021/11/27 06:54:35;;;;;;;881.35;824.60;;;;;;;17.82;44.35;101917.34;5043925;28;20029;-44
2021/11/27 06:57:02;;;;;;;855.17;801.63;;;;;;;17.83;44.31;101920.81;5050306;28;20047;-43
2021/11/27 06:59:28;;;;;;;881.33;824.63;;;;;;;17.84;44.21;101918.06;5046709;28;20029;-43
2021/11/27 07:01:54;;;;;;;878.40;821.45;;;;;;;17.83;44.36;101918.16;5057086;28;20459;-43
2021/11/27 07:04:21;;;;;;;865.05;809.67;;;;;;;17.81;44.30;101912.13;5053281;28;20099;-43
2021/11/27 07:06:48;;;;;;;875.30;820.13;;;;;;;17.84;44.06;101904.78;5052713;28;20017;-43
2021/11/27 07:09:15;;;;;;;850.08;796.42;;;;;;;17.84;44.11;101907.44;5053737;28;20102;-44
2021/11/27 07:11:41;;;;;;;881.97;824.28;;;;;;;17.78;43.95;101904.38;5053617;28;20045;-43
2021/11/27 07:14:07;;;;;;;878.05;822.08;;;;;;;17.80;44.15;101899.78;5052962;28;20029;-44
2021/11/27 07:16:34;;;;;;;860.95;805.83;;;;;;;17.74;44.46;101901.06;5048663;28;20028;-44
2021/11/27 07:19:00;;;;;;;866.03;811.10;;;;;;;17.75;44.44;101891.31;5049706;28;20110;-44
2021/11/27 07:21:26;;;;;;;870.95;816.15;;;;;;;17.74;44.24;101889.59;5052584;28;20399;-43
2021/11/27 07:23:52;;;;;;;863.08;807.97;;;;;;;17.70;44.44;101896.13;5046605;28;20036;-44
2021/11/27 07:26:19;;;;;;;880.17;824.17;;;;;;;17.70;44.23;101878.34;5053105;28;20130;-44
2021/11/27 07:28:46;;;;;;;864.83;809.22;;;;;;;17.70;44.16;101888.16;5051869;28;20170;-43
2021/11/27 07:31:12;;;;;;;857.58;803.75;;;;;;;17.69;44.17;101884.63;5051948;28;20032;-43
2021/11/27 07:33:38;;;;;;;858.85;804.80;;;;;;;17.67;44.17;101881.22;5040769;28;20079;-43
2021/11/27 07:36:05;;;;;;;891.95;834.75;;;;;;;17.62;44.33;101865.63;5044543;28;20039;-43
2021/11/27 07:38:31;;;;;;;860.15;805.50;;;;;;;17.67;43.99;101881.22;5042051;28;20028;-43
2021/11/27 07:40:58;;;;;;;857.85;803.35;;;;;;;17.68;43.90;101874.97;5047024;28;21228;-44
2021/11/27 07:43:24;;;;;;;870.70;815.75;;;;;;;17.69;44.17;101868.69;5044126;28;20447;-43
2021/11/27 07:45:50;;;;;;;877.28;821.53;;;;;;;17.65;44.24;101868.03;5047216;28;20032;-43
2021/11/27 07:48:17;;;;;;;880.80;825.38;;;;;;;17.60;44.29;101866.69;5051646;28;20351;-43
2021/11/27 07:50:43;;;;;;;866.88;811.53;;;;;;;17.63;44.25;101866.47;5050345;28;20760;-43
2021/11/27 07:53:09;;;;;;;883.22;827.13;;;;;;;17.57;44.24;101865.09;5049456;28;20037;-44
2021/11/27 07:55:35;;;;;;;882.22;826.65;;;;;;;17.58;44.17;101865.94;5064111;28;20450;-44
2021/11/27 07:58:02;;;;;;;869.28;813.97;;;;;;;17.54;44.23;101869.78;5055648;28;20029;-43
2021/11/27 08:00:28;;;;;;;873.95;818.80;;;;;;;17.55;44.18;101871.47;5051962;28;20072;-43
2021/11/27 08:02:54;;;;;;;880.00;824.75;;;;;;;17.55;43.99;101869.69;5053542;28;20505;-43
2021/11/27 08:05:20;;;;;;;881.78;825.72;;;;;;;17.55;44.10;101868.81;5052117;28;20032;-44
2021/11/27 08:07:46;;;;;;;877.97;822.03;;;;;;;17.57;43.96;101858.94;5052155;28;20040;-43
2021/11/27 08:10:13;;;;;;;872.20;817.00;;;;;;;17.55;43.95;101863.50;5054356;28;20021;-44
2021/11/27 08:12:39;;;;;;;871.20;815.67;;;;;;;17.55;44.10;101851.09;5043059;28;20458;-43
2021/11/27 08:15:06;;;;;;;853.80;800.20;;;;;;;17.52;44.10;101856.63;5046957;28;20033;-44
2021/11/27 08:17:32;;;;;;;885.47;829.40;;;;;;;17.51;44.40;101856.72;5042885;28;20037;-43
2021/11/27 08:19:58;;;;;;;868.67;813.45;;;;;;;17.49;44.26;101860.31;5044762;28;20455;-43
2021/11/27 08:22:25;;;;;;;863.72;809.20;;;;;;;17.49;44.22;101859.47;5040725;28;20029;-43
2021/11/27 08:24:51;;;;;;;857.55;802.00;;;;;;;17.45;43.99;101869.47;5050749;28;20446;-43
2021/11/27 08:27:18;;;;;;;876.65;821.45;;;;;;;17.43;44.06;101868.75;5052777;28;20033;-43
2021/11/27 08:29:44;;;;;;;871.92;817.13;;;;;;;17.42;44.03;101860.88;5050838;28;20037;-43
2021/11/27 08:32:10;;;;;;;866.75;811.60;;;;;;;17.44;44.00;101862.44;5039421;28;20036;-43
2021/11/27 08:34:36;;;;;;;878.05;822.17;;;;;;;17.40;44.08;101854.84;5051411;28;20362;-43
2021/11/27 08:37:02;;;;;;;860.08;806.60;;;;;;;17.41;44.02;101854.72;5050410;28;20040;-43
2021/11/27 08:39:28;;;;;;;886.65;830.38;;;;;;;17.42;44.14;101850.25;5048892;28;20533;-43
2021/11/27 08:41:55;;;;;;;864.35;809.83;;;;;;;17.43;44.14;101851.97;5051861;28;20021;-44
2021/11/27 08:44:21;;;;;;;861.90;807.72;;;;;;;17.40;44.15;101853.00;5051335;28;20063;-43
2021/11/27 08:46:48;;;;;;;855.03;801.53;;;;;;;17.38;44.19;101846.97;5045715;28;20137;-44
2021/11/27 08:49:14;;;;;;;868.67;814.70;;;;;;;17.36;44.17;101843.56;5041182;28;20458;-43
2021/11/27 08:51:42;;;;;;;867.88;813.15;;;;;;;17.36;44.14;101840.09;5042071;28;20048;-43
2021/11/27 08:54:09;;;;;;;864.25;810.05;;;;;;;17.35;44.11;101835.72;5045714;28;20033;-43
2021/11/27 08:56:36;;;;;;;863.08;808.60;;;;;;;17.31;44.07;101829.78;5044858;28;20035;-43
2021/11/27 08:59:02;;;;;;;861.50;807.55;;;;;;;17.32;44.01;101831.50;5043123;28;20618;-43
2021/11/27 09:01:28;;;;;;;858.33;804.10;;;;;;;17.31;44.14;101836.91;5054566;28;20037;-43
2021/11/27 09:03:55;;;;;;;875.95;821.35;;;;;;;17.24;44.01;101823.19;5055351;28;20025;-43
2021/11/27 09:06:21;;;;;;;879.65;823.90;;;;;;;17.31;43.97;101840.41;5050030;28;20521;-44
2021/11/27 09:08:49;;;;;;;874.63;819.15;;;;;;;17.32;44.02;101834.13;5055489;28;20111;-43
2021/11/27 09:11:16;;;;;;;866.30;812.15;;;;;;;17.31;43.97;101835.09;5054257;28;20029;-43
2021/11/27 09:13:43;;;;;;;859.65;806.00;;;;;;;17.33;44.00;101827.84;5048185;28;20021;-43
2021/11/27 09:16:09;;;;;;;851.13;797.50;;;;;;;17.32;44.06;101831.50;5044291;28;20451;-43
2021/11/27 09:18:35;;;;;;;867.38;812.58;;;;;;;17.27;44.13;101828.31;5046677;28;20040;-44
2021/11/27 09:21:02;;;;;;;877.97;822.53;;;;;;;17.25;44.03;101822.22;5042622;28;20121;-44
2021/11/27 09:23:28;;;;;;;870.35;816.38;;;;;;;17.24;44.00;101823.19;5043871;28;20033;-43
2021/11/27 09:25:54;;;;;;;877.28;821.95;;;;;;;17.24;43.85;101825.84;5044280;28;20046;-43
2021/11/27 09:28:21;;;;;;;884.30;828.25;;;;;;;17.20;43.97;101827.88;5043251;28;20036;-43
2021/11/27 09:30:47;;;;;;;880.88;825.35;;;;;;;17.19;44.22;101831.47;5045275;28;20359;-43
2021/11/27 09:33:13;;;;;;;873.97;818.72;;;;;;;17.16;43.97;101822.88;5043316;28;20447;-43
2021/11/27 09:35:46;;;;;;;859.88;805.83;;;;;;;17.08;44.02;101805.69;5044313;28;20024;-43
2021/11/27 09:38:13;;;;;;;880.58;825.30;;;;;;;17.22;43.98;101820.66;5042311;28;20029;-43
2021/11/27 09:40:39;;;;;;;860.45;806.95;;;;;;;17.22;43.93;101814.50;5047286;28;20037;-43
2021/11/27 09:43:05;;;;;;;866.38;811.10;;;;;;;17.10;44.23;101802.94;5044390;28;20035;-43
2021/11/27 09:45:32;;;;;;;888.55;832.33;;;;;;;17.19;43.96;101807.59;5047666;28;20048;-43
2021/11/27 09:47:58;;;;;;;869.03;815.08;;;;;;;17.17;44.08;101817.47;5045111;28;20033;-43
2021/11/27 09:50:24;;;;;;;851.10;798.28;;;;;;;17.01;44.15;101799.13;5047464;28;20037;-43
2021/11/27 09:52:50;;;;;;;849.90;796.88;;;;;;;17.14;44.10;101822.16;5050363;28;20075;-43
2021/11/27 09:55:17;;;;;;;859.42;805.88;;;;;;;17.10;43.92;101822.34;5044718;28;20036;-43
2021/11/27 09:57:45;;;;;;;864.60;810.78;;;;;;;17.09;44.08;101822.50;5041913;28;20032;-43
2021/11/27 10:00:11;;;;;;;875.63;820.58;;;;;;;17.09;43.95;101833.09;5045784;28;20033;-43
2021/11/27 10:02:38;;;;;;;861.50;807.53;;;;;;;17.09;44.07;101835.75;5044791;28;20021;-43
2021/11/27 10:05:04;;;;;;;879.05;823.40;;;;;;;17.06;44.19;101834.16;5058290;28;20025;-43
2021/11/27 10:07:30;;;;;;;870.33;814.80;;;;;;;17.08;44.11;101826.94;5053224;28;20108;-43
2021/11/27 10:09:57;;;;;;;875.88;820.70;;;;;;;17.11;44.05;101825.88;5053116;28;20466;-43
2021/11/27 10:12:24;;;;;;;878.65;823.30;;;;;;;17.14;44.10;101830.94;5069646;28;20017;-43
2021/11/27 10:14:50;;;;;;;854.58;799.60;;;;;;;17.12;43.93;101840.00;5052619;28;20458;-43
2021/11/27 10:17:20;;;;;;;877.65;822.35;;;;;;;17.09;44.09;101836.59;5050094;28;21721;-43
2021/11/27 10:19:47;;;;;;;858.92;805.58;;;;;;;17.07;44.11;101838.50;5056099;28;20029;-43
2021/11/27 10:22:18;;;;;;;860.95;806.83;;;;;;;17.04;44.03;101838.72;5057904;28;20043;-43
2021/11/27 10:24:47;;;;;;;868.55;814.47;;;;;;;17.05;43.97;101844.88;5046516;28;20038;-43
2021/11/27 10:27:31;;;;;;;878.63;823.95;;;;;;;17.04;44.24;101848.50;5050124;28;20039;-43
2021/11/27 10:29:58;;;;;;;847.83;795.47;;;;;;;17.02;44.13;101851.25;5054168;28;20086;-43
2021/11/27 10:32:30;;;;;;;881.65;826.78;;;;;;;16.98;44.09;101843.59;5045883;28;20100;-43
2021/11/27 10:34:57;;;;;;;927.70;862.42;;;;;;;16.97;44.04;101832.13;5047687;28;20021;-43
2021/11/27 10:37:46;;;;;;;861.33;806.92;;;;;;;17.00;44.14;101837.25;5044011;28;20037;-43
2021/11/27 10:40:20;;;;;;;860.03;805.97;;;;;;;17.00;44.08;101826.63;5054604;28;20040;-43
2021/11/27 10:42:57;;;;;;;863.88;809.47;;;;;;;17.04;44.14;101827.25;5053415;28;20025;-43
2021/11/27 10:45:33;;;;;;;837.72;784.47;;;;;;;16.98;44.23;101831.16;5054714;28;20036;-43
2021/11/27 10:48:19;;;;;;;862.22;807.95;;;;;;;17.00;44.05;101842.56;5050994;28;20048;-43
2021/11/27 10:50:52;;;;;;;854.95;801.85;;;;;;;16.94;44.06;101837.66;5055992;28;20024;-43
2021/11/27 10:53:23;;;;;;;869.28;814.85;;;;;;;16.92;44.05;101844.88;5049980;28;20121;-43
2021/11/27 10:55:50;;;;;;;854.85;801.85;;;;;;;16.96;43.96;101846.34;5053762;28;20430;-43